Time;durP1;ratioP1;P1;durP2;ratioP2;P2;SDS_P1;SDS_P2;PMS_P1;PMS_P2;Temp;Humidity;BMP_temperature;BMP_pressure;BME280_temperature;BME280_humidity;BME280_pressure;Samples;Min_cycle;Max_cycle;Signal;HPM_P1;HPM_P2
2021/08/20 00:00:37;;;;;;;2.77;2.57;;;17.20;99.90;;;;;;6315535;22;20162;-92
2021/08/20 00:03:03;;;;;;;2.43;2.30;;;17.20;99.90;;;;;;6313694;22;20189;-93
2021/08/20 00:05:28;;;;;;;3.10;2.90;;;17.20;99.90;;;;;;6313946;22;20634;-92
2021/08/20 00:07:54;;;;;;;5.03;4.00;;;17.30;99.90;;;;;;6311928;22;20471;-92
2021/08/20 00:10:19;;;;;;;3.03;2.83;;;17.30;99.90;;;;;;6314045;22;20540;-92
2021/08/20 00:12:45;;;;;;;3.80;3.50;;;17.40;99.90;;;;;;6314191;22;20215;-92
2021/08/20 00:15:11;;;;;;;4.20;3.40;;;17.40;99.90;;;;;;6316090;22;20193;-92
2021/08/20 00:17:37;;;;;;;4.40;3.60;;;17.40;99.90;;;;;;6315405;22;20162;-93
2021/08/20 00:20:04;;;;;;;4.40;3.67;;;17.40;99.90;;;;;;6313344;22;20399;-93
2021/08/20 00:22:29;;;;;;;4.20;3.03;;;17.40;99.90;;;;;;6313700;22;20372;-92
2021/08/20 00:24:55;;;;;;;2.73;2.53;;;17.40;99.90;;;;;;6312681;22;20396;-92
2021/08/20 00:27:21;;;;;;;4.00;3.00;;;17.40;99.90;;;;;;6314198;22;20563;-93
2021/08/20 00:29:46;;;;;;;3.20;2.90;;;17.30;99.90;;;;;;6313119;22;20162;-92
2021/08/20 00:32:12;;;;;;;2.90;2.70;;;17.20;99.90;;;;;;6314238;22;20762;-92
2021/08/20 00:34:38;;;;;;;3.00;2.70;;;17.10;99.90;;;;;;6313106;22;20165;-92
2021/08/20 00:37:04;;;;;;;3.10;2.80;;;17.00;99.90;;;;;;6315370;22;20165;-91
2021/08/20 00:39:29;;;;;;;2.93;2.67;;;17.00;99.90;;;;;;6310972;22;20157;-91
2021/08/20 00:41:55;;;;;;;3.20;2.97;;;17.00;99.90;;;;;;6313414;22;20165;-91
2021/08/20 00:44:21;;;;;;;3.63;3.33;;;17.00;99.90;;;;;;6313673;22;20282;-92
2021/08/20 00:46:47;;;;;;;3.73;3.37;;;16.90;99.90;;;;;;6314714;22;20658;-92
2021/08/20 00:49:13;;;;;;;3.13;2.83;;;16.90;99.90;;;;;;6314210;22;20361;-92
2021/08/20 00:51:39;;;;;;;5.93;3.70;;;16.90;99.90;;;;;;6312305;22;20499;-92
2021/08/20 00:54:10;;;;;;;3.83;3.30;;;16.90;99.90;;;;;;6313036;22;20706;-91
2021/08/20 00:56:38;;;;;;;3.17;2.70;;;17.00;99.90;;;;;;6314578;22;20833;-92
2021/08/20 00:59:05;;;;;;;5.20;3.37;;;17.00;99.90;;;;;;6314830;22;20517;-92
2021/08/20 01:01:31;;;;;;;3.17;2.87;;;16.90;99.90;;;;;;6311438;22;20861;-92
2021/08/20 01:03:57;;;;;;;4.93;3.17;;;16.90;99.90;;;;;;6309582;22;20496;-92
2021/08/20 01:06:25;;;;;;;3.63;3.30;;;16.90;99.90;;;;;;6312102;22;20510;-92
2021/08/20 01:08:51;;;;;;;6.33;3.17;;;16.90;99.90;;;;;;6312290;22;20502;-92
2021/08/20 01:11:19;;;;;;;3.63;3.10;;;17.00;99.90;;;;;;6312116;22;20407;-91
2021/08/20 01:13:44;;;;;;;3.30;3.00;;;17.00;99.90;;;;;;6312879;22;20197;-93
2021/08/20 01:16:10;;;;;;;3.50;3.10;;;17.00;99.90;;;;;;6311084;22;20454;-92
2021/08/20 01:18:38;;;;;;;3.70;3.30;;;17.00;99.90;;;;;;6312949;22;20161;-91
2021/08/20 01:21:08;;;;;;;5.60;3.43;;;17.00;99.90;;;;;;6314119;22;20616;-91
2021/08/20 01:23:35;;;;;;;3.93;3.63;;;16.90;99.90;;;;;;6311110;22;20400;-91
2021/08/20 01:26:01;;;;;;;4.47;3.10;;;16.80;99.90;;;;;;6314774;22;20434;-91
2021/08/20 01:28:27;;;;;;;4.10;3.10;;;16.70;99.90;;;;;;6313034;22;20436;-91
2021/08/20 01:31:06;;;;;;;3.40;2.57;;;16.60;99.90;;;;;;6310854;22;20787;-90
2021/08/20 01:33:32;;;;;;;3.40;3.10;;;16.60;99.90;;;;;;6313421;22;20411;-92
2021/08/20 01:35:58;;;;;;;3.47;3.10;;;16.60;99.90;;;;;;6313023;22;20423;-91
2021/08/20 01:38:25;;;;;;;4.30;3.30;;;16.60;99.90;;;;;;6287941;22;20696;-91
2021/08/20 01:40:52;;;;;;;3.70;3.40;;;16.50;99.90;;;;;;6313141;22;20400;-92
2021/08/20 01:43:18;;;;;;;4.40;3.60;;;16.50;99.90;;;;;;6314270;22;20432;-91
2021/08/20 01:45:45;;;;;;;3.93;3.50;;;16.50;99.90;;;;;;6314404;22;20409;-92
2021/08/20 01:48:11;;;;;;;4.00;3.70;;;16.60;99.90;;;;;;6313306;22;20466;-92
2021/08/20 01:50:39;;;;;;;4.23;3.90;;;16.60;99.90;;;;;;6312406;22;20396;-91
2021/08/20 01:53:07;;;;;;;4.03;3.73;;;16.70;99.90;;;;;;6311863;22;20404;-92
2021/08/20 01:55:33;;;;;;;5.70;4.20;;;16.80;99.90;;;;;;6315737;22;20918;-91
2021/08/20 01:58:01;;;;;;;3.83;3.30;;;16.80;99.90;;;;;;6314336;22;20930;-92
2021/08/20 02:00:27;;;;;;;4.40;4.00;;;16.80;99.90;;;;;;6312058;22;20929;-91
2021/08/20 02:02:52;;;;;;;4.03;3.50;;;16.70;99.90;;;;;;6312308;22;20411;-92
2021/08/20 02:05:18;;;;;;;3.87;3.57;;;16.70;99.90;;;;;;6312556;22;20161;-91
2021/08/20 02:07:44;;;;;;;5.83;3.77;;;16.70;99.90;;;;;;6310444;22;20274;-91
2021/08/20 02:10:11;;;;;;;5.67;3.53;;;16.70;99.90;;;;;;6312368;22;20215;-92
2021/08/20 02:12:39;;;;;;;4.73;3.87;;;16.70;99.90;;;;;;6315661;22;20643;-93
2021/08/20 02:15:06;;;;;;;5.80;4.07;;;16.70;99.90;;;;;;6315720;22;20388;-92
2021/08/20 02:17:32;;;;;;;4.23;3.93;;;16.70;99.90;;;;;;6315921;22;20939;-93
2021/08/20 02:19:58;;;;;;;4.47;4.07;;;16.60;99.90;;;;;;6311866;22;20383;-93
2021/08/20 02:22:23;;;;;;;4.80;3.60;;;16.60;99.90;;;;;;6313762;22;20567;-93
2021/08/20 02:24:52;;;;;;;5.30;4.03;;;16.60;99.90;;;;;;6313506;22;20226;-94
2021/08/20 02:27:19;;;;;;;3.67;3.37;;;16.60;99.90;;;;;;6313276;22;20200;-93
2021/08/20 02:29:46;;;;;;;4.70;3.97;;;16.70;99.90;;;;;;6316039;22;20423;-93
2021/08/20 02:32:12;;;;;;;3.30;3.07;;;16.70;99.90;;;;;;6314964;22;20586;-93
2021/08/20 02:34:38;;;;;;;3.77;3.20;;;16.80;99.90;;;;;;6314568;22;20391;-93
2021/08/20 02:37:04;;;;;;;4.00;3.60;;;16.70;99.90;;;;;;6313532;22;20485;-92
2021/08/20 02:39:30;;;;;;;6.10;3.60;;;16.60;99.90;;;;;;6311138;22;20161;-92
2021/08/20 02:41:56;;;;;;;6.20;3.73;;;16.60;99.90;;;;;;6313229;22;20846;-92
2021/08/20 02:44:22;;;;;;;4.27;3.87;;;16.70;99.90;;;;;;6311864;22;20473;-92
2021/08/20 02:46:48;;;;;;;8.80;3.67;;;16.60;99.90;;;;;;6315744;22;20432;-94
2021/08/20 02:49:13;;;;;;;3.53;3.23;;;16.60;99.90;;;;;;6313256;22;20172;-92
2021/08/20 02:51:39;;;;;;;3.77;3.27;;;16.70;99.90;;;;;;6311443;22;20165;-93
2021/08/20 02:54:05;;;;;;;3.47;3.17;;;16.90;99.90;;;;;;6314462;22;20161;-91
2021/08/20 02:56:30;;;;;;;3.43;3.13;;;16.90;99.90;;;;;;6311556;22;20195;-92
2021/08/20 02:58:56;;;;;;;4.47;3.83;;;17.00;99.90;;;;;;6309304;22;20203;-93
2021/08/20 03:01:22;;;;;;;4.50;4.03;;;17.00;99.90;;;;;;6311896;22;20169;-93
2021/08/20 03:03:48;;;;;;;3.83;3.53;;;17.10;99.90;;;;;;6309566;22;20916;-92
2021/08/20 03:06:15;;;;;;;4.87;3.60;;;17.10;99.90;;;;;;6310366;22;20192;-92
2021/08/20 03:08:41;;;;;;;3.67;3.37;;;17.00;99.90;;;;;;6311000;22;20551;-93
2021/08/20 03:11:07;;;;;;;4.90;3.60;;;16.90;99.90;;;;;;6312276;22;20486;-91
2021/08/20 03:13:32;;;;;;;5.70;4.23;;;16.90;99.90;;;;;;6311458;22;20223;-92
2021/08/20 03:15:58;;;;;;;4.47;4.07;;;16.90;99.90;;;;;;6312686;22;20280;-92
2021/08/20 03:18:24;;;;;;;5.77;3.57;;;16.90;99.90;;;;;;6315182;22;20189;-92
2021/08/20 03:20:49;;;;;;;4.00;3.40;;;16.80;99.90;;;;;;6314633;22;20162;-92
2021/08/20 03:23:15;;;;;;;4.00;3.70;;;16.70;99.90;;;;;;6315233;22;20248;-91
2021/08/20 03:25:41;;;;;;;4.63;3.63;;;16.60;99.90;;;;;;6316048;22;20651;-92
2021/08/20 03:28:07;;;;;;;7.03;3.33;;;16.60;99.90;;;;;;6313012;22;20229;-93
2021/08/20 03:30:34;;;;;;;3.70;3.30;;;16.60;99.90;;;;;;6311209;22;20161;-93
2021/08/20 03:33:00;;;;;;;3.60;3.20;;;16.50;99.90;;;;;;6313841;22;20400;-90
2021/08/20 03:35:26;;;;;;;3.10;2.90;;;16.50;99.90;;;;;;6313611;22;20393;-91
2021/08/20 03:37:51;;;;;;;3.83;3.40;;;16.50;99.90;;;;;;6316226;22;20414;-91
2021/08/20 03:40:17;;;;;;;3.63;3.33;;;16.50;99.90;;;;;;6314965;22;20732;-91
2021/08/20 03:42:43;;;;;;;4.13;3.17;;;16.60;99.90;;;;;;6310634;22;20165;-92
2021/08/20 03:45:11;;;;;;;3.40;2.90;;;16.80;99.90;;;;;;6313329;22;20244;-94
2021/08/20 03:47:37;;;;;;;3.67;3.37;;;16.80;99.90;;;;;;6320278;22;20242;-94
2021/08/20 03:50:04;;;;;;;4.70;3.60;;;16.90;99.90;;;;;;6321934;22;20463;-92
2021/08/20 03:52:29;;;;;;;4.53;4.07;;;16.90;99.90;;;;;;6297673;22;20222;-92
2021/08/20 03:54:55;;;;;;;4.60;4.00;;;17.00;99.90;;;;;;6323691;22;20396;-93
2021/08/20 03:57:21;;;;;;;5.60;3.60;;;17.00;99.90;;;;;;6323292;22;20563;-90
2021/08/20 03:59:46;;;;;;;5.70;4.10;;;17.00;99.90;;;;;;6321773;22;20164;-91
2021/08/20 04:02:12;;;;;;;5.83;3.90;;;16.80;99.90;;;;;;6323386;22;20592;-91
2021/08/20 04:04:38;;;;;;;4.63;4.13;;;16.80;99.90;;;;;;6323671;22;20607;-90
2021/08/20 04:07:03;;;;;;;4.87;3.40;;;16.80;99.90;;;;;;6322847;22;20611;-91
2021/08/20 04:09:29;;;;;;;3.40;3.13;;;16.80;99.90;;;;;;6323719;22;20240;-92
2021/08/20 04:11:55;;;;;;;13.53;3.70;;;16.80;99.90;;;;;;6323273;22;20816;-92
2021/08/20 04:14:21;;;;;;;4.57;3.57;;;16.70;99.90;;;;;;6324222;22;20168;-93
2021/08/20 04:16:46;;;;;;;3.53;3.23;;;16.80;99.90;;;;;;6323936;22;20400;-92
2021/08/20 04:19:14;;;;;;;4.00;3.70;;;16.80;99.90;;;;;;6323734;22;20158;-91
2021/08/20 04:21:43;;;;;;;4.23;3.83;;;16.80;99.90;;;;;;6322990;22;20161;-91
2021/08/20 04:24:12;;;;;;;3.53;3.17;;;16.80;99.90;;;;;;6323472;22;20399;-91
2021/08/20 04:26:38;;;;;;;5.70;2.97;;;16.80;99.90;;;;;;6322802;22;20812;-92
2021/08/20 04:29:04;;;;;;;4.47;4.17;;;16.80;99.90;;;;;;6323828;22;20396;-90
2021/08/20 04:31:30;;;;;;;3.60;3.30;;;16.80;99.90;;;;;;6323769;22;21821;-92
2021/08/20 04:33:55;;;;;;;3.73;3.43;;;16.80;99.90;;;;;;6323495;22;20240;-91
2021/08/20 04:36:21;;;;;;;4.17;3.87;;;16.80;99.90;;;;;;6319803;22;20638;-90
2021/08/20 04:38:49;;;;;;;5.27;4.10;;;16.70;99.90;;;;;;6322336;22;20206;-91
2021/08/20 04:41:17;;;;;;;4.20;3.80;;;16.70;99.90;;;;;;6321203;22;20256;-92
2021/08/20 04:43:43;;;;;;;4.00;3.70;;;16.70;99.90;;;;;;6323822;22;20878;-91
2021/08/20 04:46:11;;;;;;;5.43;3.70;;;16.70;99.90;;;;;;6323158;22;20600;-91
2021/08/20 04:48:38;;;;;;;5.40;3.80;;;16.70;99.90;;;;;;6323299;22;20631;-91
2021/08/20 04:51:03;;;;;;;4.53;4.00;;;16.70;99.90;;;;;;6293839;22;20715;-91
2021/08/20 04:53:31;;;;;;;4.23;3.83;;;16.70;99.90;;;;;;6321658;22;20400;-92
2021/08/20 04:55:58;;;;;;;3.43;3.13;;;16.70;99.90;;;;;;6321002;22;20241;-91
2021/08/20 04:58:24;;;;;;;3.77;3.47;;;16.80;99.90;;;;;;6320860;22;20430;-91
2021/08/20 05:00:53;;;;;;;3.90;3.43;;;16.90;99.90;;;;;;6321763;22;20397;-92
2021/08/20 05:03:20;;;;;;;4.40;4.00;;;16.90;99.90;;;;;;6321408;22;20404;-91
2021/08/20 05:06:14;;;;;;;3.90;3.60;;;17.00;99.90;;;;;;6329366;22;20396;-96
2021/08/20 05:08:41;;;;;;;4.80;4.23;;;16.90;99.90;;;;;;6308633;22;20425;-96
2021/08/20 05:11:08;;;;;;;5.37;3.67;;;17.00;99.90;;;;;;6315823;22;20442;-96
2021/08/20 05:13:44;;;;;;;4.10;3.70;;;17.10;99.90;;;;;;6354370;22;20380;-96
2021/08/20 05:16:21;;;;;;;4.20;3.80;;;17.10;99.90;;;;;;6311827;22;20422;-96
2021/08/20 05:26:33;;;;;;;4.83;3.90;;;17.00;99.90;;;;;;6216091;22;20969;-95
2021/08/20 05:28:59;;;;;;;4.47;4.10;;;17.00;99.90;;;;;;6210507;23;20653;-94
2021/08/20 05:31:25;;;;;;;4.87;4.43;;;16.90;99.90;;;;;;6208966;23;20412;-94
2021/08/20 05:33:51;;;;;;;5.90;3.90;;;17.00;99.90;;;;;;6211565;23;20181;-95
2021/08/20 05:36:16;;;;;;;4.37;3.97;;;17.10;99.90;;;;;;6210240;23;20232;-95
2021/08/20 05:38:42;;;;;;;4.40;3.90;;;17.10;99.90;;;;;;6209336;23;20170;-96
2021/08/20 05:41:08;;;;;;;4.70;3.70;;;17.10;99.90;;;;;;6209973;23;20162;-95
2021/08/20 05:43:34;;;;;;;3.90;3.50;;;17.20;99.90;;;;;;6211184;23;20167;-96
2021/08/20 05:45:59;;;;;;;4.13;3.73;;;17.20;99.90;;;;;;6208909;23;20437;-95
2021/08/20 05:48:25;;;;;;;4.37;3.97;;;17.20;99.90;;;;;;6210289;23;20220;-95
2021/08/20 05:50:54;;;;;;;4.10;3.80;;;17.30;99.90;;;;;;6208714;23;20159;-95
2021/08/20 05:53:25;;;;;;;4.00;3.60;;;17.40;99.90;;;;;;6211304;23;20437;-96
2021/08/20 05:55:51;;;;;;;3.40;3.10;;;17.40;99.90;;;;;;6210644;23;20394;-95
2021/08/20 05:58:16;;;;;;;3.87;3.50;;;17.50;99.90;;;;;;6208728;23;20428;-96
2021/08/20 06:00:42;;;;;;;4.10;3.70;;;17.50;99.90;;;;;;6209992;23;20167;-95
2021/08/20 06:03:08;;;;;;;3.67;3.37;;;17.60;99.90;;;;;;6209819;23;20541;-96
2021/08/20 06:05:34;;;;;;;4.10;3.53;;;17.70;99.90;;;;;;6210019;23;20232;-95
2021/08/20 06:08:03;;;;;;;4.37;3.97;;;17.70;99.90;;;;;;6205574;23;20201;-95
2021/08/20 06:10:31;;;;;;;3.50;3.20;;;17.80;99.90;;;;;;6209075;23;20167;-95
2021/08/20 06:12:57;;;;;;;5.77;3.80;;;17.80;99.90;;;;;;6206526;23;20939;-94
2021/08/20 06:15:25;;;;;;;5.93;3.60;;;17.90;99.90;;;;;;6209682;23;20394;-96
2021/08/20 06:17:51;;;;;;;3.53;3.27;;;17.90;99.90;;;;;;6208890;23;20174;-95
2021/08/20 06:20:37;;;;;;;3.87;3.57;;;18.00;99.90;;;;;;6207407;23;20413;-94
2021/08/20 06:23:02;;;;;;;3.50;3.20;;;18.00;99.90;;;;;;6208569;23;20481;-95
2021/08/20 06:25:28;;;;;;;4.23;3.93;;;18.00;99.90;;;;;;6209139;23;20437;-94
2021/08/20 06:27:56;;;;;;;3.60;3.30;;;18.10;99.90;;;;;;6207913;23;20574;-95
2021/08/20 06:30:27;;;;;;;3.63;3.33;;;18.20;99.90;;;;;;6205799;23;20198;-94
2021/08/20 06:32:58;;;;;;;3.93;3.53;;;18.20;99.90;;;;;;6207938;23;20805;-95
2021/08/20 06:35:33;;;;;;;4.17;3.77;;;18.40;99.90;;;;;;6234510;23;20420;-95
2021/08/20 06:37:59;;;;;;;4.00;3.60;;;18.50;99.90;;;;;;6208516;23;20872;-95
2021/08/20 06:40:25;;;;;;;4.20;3.80;;;18.50;99.90;;;;;;6208489;23;20211;-95
2021/08/20 06:42:51;;;;;;;3.77;3.47;;;18.50;99.90;;;;;;6208480;23;20209;-95
2021/08/20 06:45:17;;;;;;;3.57;3.27;;;18.60;99.90;;;;;;6208619;23;21260;-94
2021/08/20 06:47:45;;;;;;;9.27;3.60;;;18.60;99.90;;;;;;6208416;23;20190;-94
2021/08/20 06:50:11;;;;;;;3.83;3.53;;;18.70;99.90;;;;;;6210763;23;20887;-94
2021/08/20 06:52:37;;;;;;;4.50;3.43;;;18.80;99.90;;;;;;6208927;23;20163;-94
2021/08/20 06:55:07;;;;;;;4.00;3.07;;;18.80;99.90;;;;;;6209722;23;20272;-92
2021/08/20 06:57:37;;;;;;;3.67;3.37;;;19.00;99.90;;;;;;6210131;23;20405;-94
2021/08/20 07:00:07;;;;;;;3.60;3.30;;;19.30;99.90;;;;;;6211850;23;20390;-93
2021/08/20 07:02:48;;;;;;;4.80;3.57;;;19.40;99.90;;;;;;6214663;23;20253;-94
2021/08/20 07:05:18;;;;;;;3.80;3.50;;;19.60;99.90;;;;;;6215561;23;20924;-94
2021/08/20 07:07:44;;;;;;;4.80;3.60;;;19.60;99.90;;;;;;6212550;23;20199;-94
2021/08/20 07:10:13;;;;;;;4.70;3.70;;;19.70;99.90;;;;;;6208564;23;20382;-95
2021/08/20 07:12:39;;;;;;;6.10;3.97;;;19.70;99.90;;;;;;6185379;23;20418;-94
2021/08/20 07:15:10;;;;;;;4.00;3.60;;;19.70;99.90;;;;;;6210587;23;20417;-94
2021/08/20 07:17:36;;;;;;;4.07;3.77;;;19.90;99.90;;;;;;6210722;23;20532;-94
2021/08/20 07:20:05;;;;;;;4.53;3.80;;;19.90;99.90;;;;;;6208031;23;20516;-94
2021/08/20 07:22:31;;;;;;;3.73;3.33;;;19.80;99.90;;;;;;6207311;23;20416;-93
2021/08/20 07:24:57;;;;;;;5.63;4.30;;;19.80;99.90;;;;;;6209352;23;20926;-93
2021/08/20 07:27:23;;;;;;;6.00;3.93;;;19.70;99.90;;;;;;6236654;22;20197;-94
2021/08/20 07:29:49;;;;;;;5.33;3.90;;;19.60;99.90;;;;;;6265501;22;20166;-94
2021/08/20 07:32:15;;;;;;;6.63;4.60;;;19.70;99.90;;;;;;6240280;22;20153;-93
2021/08/20 07:34:41;;;;;;;4.73;4.33;;;19.90;99.90;;;;;;6242204;22;20390;-95
2021/08/20 07:37:07;;;;;;;7.20;4.63;;;19.60;99.90;;;;;;6266416;22;20882;-94
2021/08/20 07:39:36;;;;;;;5.10;3.67;;;19.60;99.90;;;;;;6264458;22;20237;-94
2021/08/20 07:42:02;;;;;;;5.57;5.00;;;19.70;99.90;;;;;;6240362;22;20162;-94
2021/08/20 07:44:29;;;;;;;6.30;4.13;;;19.60;99.90;;;;;;6240925;22;20389;-95
2021/08/20 07:46:54;;;;;;;5.67;4.60;;;19.70;99.90;;;;;;6266031;22;20447;-95
2021/08/20 07:49:22;;;;;;;5.00;4.47;;;19.60;99.90;;;;;;6266655;22;20396;-95
2021/08/20 07:51:48;;;;;;;5.30;4.80;;;19.70;99.90;;;;;;6263249;22;20397;-95
2021/08/20 07:54:15;;;;;;;6.10;5.33;;;20.10;99.90;;;;;;6267613;22;20393;-95
2021/08/20 07:56:40;;;;;;;5.10;3.90;;;20.40;99.90;;;;;;6267018;22;20655;-95
2021/08/20 07:59:06;;;;;;;5.27;4.60;;;20.30;99.90;;;;;;6267233;22;20386;-95
2021/08/20 08:01:34;;;;;;;6.40;5.80;;;20.10;99.90;;;;;;6266786;22;20219;-95
2021/08/20 08:04:00;;;;;;;5.10;4.60;;;20.00;99.90;;;;;;6242112;22;20158;-96
2021/08/20 08:06:27;;;;;;;6.67;5.40;;;20.10;99.90;;;;;;6265852;22;20459;-95
2021/08/20 08:08:53;;;;;;;6.57;5.27;;;20.10;99.90;;;;;;6263746;22;20393;-94
2021/08/20 08:11:19;;;;;;;6.70;5.20;;;20.20;99.90;;;;;;6265996;22;20435;-95
2021/08/20 08:13:54;;;;;;;6.63;5.20;;;20.10;99.90;;;;;;6242545;22;20377;-95
2021/08/20 08:16:22;;;;;;;5.63;4.90;;;20.10;99.90;;;;;;6263910;22;20387;-91
2021/08/20 08:18:49;;;;;;;5.93;4.67;;;20.30;99.90;;;;;;6262779;22;20872;-93
2021/08/20 08:21:15;;;;;;;5.70;4.90;;;20.80;99.90;;;;;;6264880;22;20241;-92
2021/08/20 08:23:41;;;;;;;5.13;4.30;;;21.60;99.90;;;;;;6263678;22;20423;-93
2021/08/20 08:26:07;;;;;;;6.63;4.80;;;22.10;99.90;;;;;;6266057;22;20185;-92
2021/08/20 08:28:32;;;;;;;9.13;6.80;;;22.20;99.90;;;;;;6263460;22;20189;-92
2021/08/20 08:31:02;;;;;;;6.17;5.50;;;21.80;99.90;;;;;;6265393;22;20170;-93
2021/08/20 08:33:28;;;;;;;6.27;5.67;;;22.00;99.90;;;;;;6267135;22;20166;-89
2021/08/20 08:35:53;;;;;;;5.20;4.70;;;21.90;99.90;;;;;;6264514;22;20465;-92
2021/08/20 08:38:19;;;;;;;7.20;6.50;;;21.30;99.90;;;;;;6267317;22;20161;-90
2021/08/20 08:40:47;;;;;;;5.80;5.30;;;20.50;99.90;;;;;;6290857;22;20165;-92
2021/08/20 08:43:13;;;;;;;6.07;5.40;;;20.20;99.90;;;;;;6240178;22;20602;-91
2021/08/20 08:45:39;;;;;;;6.00;5.40;;;19.90;99.90;;;;;;6241132;22;20879;-90
2021/08/20 08:48:09;;;;;;;6.17;5.30;;;20.00;99.90;;;;;;6261895;22;20646;-89
2021/08/20 08:50:35;;;;;;;6.40;5.00;;;20.30;99.90;;;;;;6238630;22;20170;-91
2021/08/20 08:53:02;;;;;;;5.50;4.80;;;20.80;99.90;;;;;;6239638;22;20475;-90
2021/08/20 08:55:27;;;;;;;6.57;4.93;;;21.30;99.90;;;;;;6239337;22;20419;-92
2021/08/20 08:57:53;;;;;;;6.30;5.70;;;21.50;99.90;;;;;;6241627;22;20390;-93
2021/08/20 09:00:33;;;;;;;5.80;4.83;;;22.10;99.90;;;;;;6265106;22;20166;-91
2021/08/20 09:02:59;;;;;;;5.57;4.73;;;21.40;99.90;;;;;;6240641;22;20192;-92
2021/08/20 09:05:25;;;;;;;5.27;4.87;;;21.70;99.90;;;;;;6240407;22;20818;-91
2021/08/20 09:07:54;;;;;;;4.73;4.33;;;21.90;99.90;;;;;;6265032;22;20445;-91
2021/08/20 09:10:24;;;;;;;4.17;3.77;;;22.40;99.90;;;;;;6236882;22;20389;-92
2021/08/20 09:12:49;;;;;;;5.10;3.87;;;22.60;99.90;;;;;;6237532;22;20440;-90
2021/08/20 09:15:19;;;;;;;4.97;4.47;;;22.50;99.90;;;;;;6265423;22;20396;-92
2021/08/20 09:17:57;;;;;;;4.83;4.07;;;22.40;99.90;;;;;;6238168;22;20659;-90
2021/08/20 09:20:31;;;;;;;3.63;3.33;;;22.70;99.90;;;;;;6237110;22;20404;-94
2021/08/20 09:23:21;;;;;;;4.10;3.67;;;23.30;99.90;;;;;;6238483;22;20392;-93
2021/08/20 09:25:47;;;;;;;4.10;3.70;;;23.90;99.60;;;;;;6236267;22;20416;-92
2021/08/20 09:28:31;;;;;;;4.90;3.20;;;24.30;99.90;;;;;;6264505;22;20463;-86
2021/08/20 09:30:58;;;;;;;3.70;3.13;;;24.20;99.20;;;;;;6264838;22;20492;-89
2021/08/20 09:33:28;;;;;;;3.80;3.50;;;23.70;99.30;;;;;;6261809;22;20487;-88
2021/08/20 09:35:57;;;;;;;3.43;3.13;;;22.90;99.90;;;;;;6260638;22;20749;-89
2021/08/20 09:38:23;;;;;;;4.17;3.87;;;22.90;99.90;;;;;;6235506;22;20717;-88
2021/08/20 09:40:52;;;;;;;4.50;3.43;;;22.70;99.90;;;;;;6264786;22;20472;-90
2021/08/20 09:43:31;;;;;;;4.00;3.70;;;22.50;99.90;;;;;;6264962;22;20421;-90
2021/08/20 09:46:01;;;;;;;4.73;4.27;;;22.40;99.90;;;;;;6264135;22;20773;-92
2021/08/20 09:48:44;;;;;;;6.10;3.90;;;22.00;99.90;;;;;;6262851;22;20445;-91
2021/08/20 09:51:31;;;;;;;4.10;3.70;;;22.00;99.90;;;;;;6264252;22;20392;-91
2021/08/20 09:53:58;;;;;;;3.90;3.60;;;22.40;99.90;;;;;;6262504;22;20405;-90
2021/08/20 09:56:31;;;;;;;6.87;4.07;;;23.00;99.90;;;;;;6258290;22;20587;-90
2021/08/20 09:59:04;;;;;;;6.87;5.00;;;22.60;99.90;;;;;;6261631;22;20843;-90
2021/08/20 10:01:32;;;;;;;5.80;4.10;;;22.00;99.90;;;;;;6270463;22;20397;-89
2021/08/20 10:03:59;;;;;;;5.37;4.57;;;22.20;99.90;;;;;;6268667;22;20867;-92
2021/08/20 10:06:46;;;;;;;4.23;3.60;;;22.60;99.90;;;;;;6264585;22;20401;-90
2021/08/20 10:09:14;;;;;;;5.30;4.23;;;23.10;99.90;;;;;;6229419;22;20451;-92
2021/08/20 10:11:51;;;;;;;4.63;4.20;;;23.00;99.90;;;;;;6256561;22;20389;-91
2021/08/20 10:14:22;;;;;;;4.47;4.17;;;22.60;99.90;;;;;;6256661;22;20400;-93
2021/08/20 10:16:48;;;;;;;4.40;4.00;;;22.40;99.90;;;;;;6255069;22;20622;-90
2021/08/20 10:19:14;;;;;;;4.27;3.97;;;22.50;99.90;;;;;;6256682;22;20478;-92
2021/08/20 10:21:41;;;;;;;4.10;3.80;;;22.50;99.90;;;;;;6256620;22;20249;-91
2021/08/20 10:24:09;;;;;;;4.80;3.77;;;22.40;99.90;;;;;;6256668;22;20501;-92
2021/08/20 10:26:39;;;;;;;4.97;4.20;;;22.50;99.90;;;;;;6257014;22;20476;-91
2021/08/20 10:29:12;;;;;;;3.90;3.60;;;22.90;99.90;;;;;;6257639;22;20678;-90
2021/08/20 10:31:42;;;;;;;4.27;3.87;;;23.60;99.90;;;;;;6254630;22;20385;-89
2021/08/20 10:34:30;;;;;;;5.47;4.97;;;24.30;97.90;;;;;;6257431;22;20406;-90
2021/08/20 10:37:11;;;;;;;6.60;6.00;;;24.70;98.80;;;;;;6231885;22;20400;-89
2021/08/20 10:39:41;;;;;;;6.60;6.00;;;23.60;99.90;;;;;;6257876;22;20391;-90
2021/08/20 10:42:08;;;;;;;6.50;5.93;;;23.10;99.90;;;;;;6257377;22;20423;-91
2021/08/20 10:44:52;;;;;;;6.63;5.93;;;23.00;99.90;;;;;;6230092;22;20385;-90
2021/08/20 10:47:21;;;;;;;7.07;5.20;;;23.20;99.90;;;;;;6257852;22;20440;-90
2021/08/20 10:49:51;;;;;;;5.57;5.07;;;23.30;99.90;;;;;;6257595;22;20882;-91
2021/08/20 10:52:25;;;;;;;5.30;4.80;;;23.40;99.90;;;;;;6254089;22;20799;-91
2021/08/20 10:54:56;;;;;;;4.90;4.60;;;23.70;99.90;;;;;;6260487;22;20399;-92
2021/08/20 10:57:34;;;;;;;6.03;5.43;;;24.40;99.90;;;;;;6233458;22;20407;-92
2021/08/20 11:00:02;;;;;;;4.83;4.43;;;25.00;99.50;;;;;;6232942;22;20520;-94
2021/08/20 11:02:31;;;;;;;5.60;5.10;;;25.30;97.80;;;;;;6257896;22;20400;-93
2021/08/20 11:05:16;;;;;;;5.77;5.27;;;25.20;97.90;;;;;;6233350;22;20401;-92
2021/08/20 11:07:46;;;;;;;5.43;5.03;;;25.20;97.80;;;;;;6259042;22;20444;-91
2021/08/20 11:10:11;;;;;;;4.60;4.30;;;24.70;97.50;;;;;;6258920;22;20801;-91
2021/08/20 11:12:49;;;;;;;5.33;4.80;;;24.40;98.00;;;;;;6231285;22;21324;-90
2021/08/20 11:15:20;;;;;;;5.33;4.83;;;24.70;97.20;;;;;;6231860;22;21187;-90
2021/08/20 11:17:51;;;;;;;4.80;4.40;;;24.70;97.00;;;;;;6230037;22;20464;-90
2021/08/20 11:20:21;;;;;;;5.20;4.80;;;24.80;97.80;;;;;;6256076;22;20479;-92
2021/08/20 11:23:10;;;;;;;4.67;4.23;;;25.30;97.10;;;;;;6256464;22;20389;-94
2021/08/20 11:25:45;;;;;;;4.77;4.27;;;25.50;97.40;;;;;;6250268;22;20480;-92
2021/08/20 11:31:19;;;;;;;5.70;4.30;;;25.20;95.30;;;;;;6231449;23;20382;-93
2021/08/20 11:33:47;;;;;;;4.73;4.33;;;25.00;95.30;;;;;;6203092;23;20817;-92
2021/08/20 11:36:16;;;;;;;4.90;4.60;;;25.10;95.40;;;;;;6177678;23;20444;-93
2021/08/20 11:38:53;;;;;;;5.13;4.70;;;24.20;96.70;;;;;;6203318;23;20880;-92
2021/08/20 11:41:55;;;;;;;5.70;5.20;;;24.30;98.10;;;;;;6201184;23;20451;-93
2021/08/20 11:44:37;;;;;;;5.97;5.10;;;24.90;97.60;;;;;;6204123;23;20409;-93
2021/08/20 11:47:06;;;;;;;5.37;4.97;;;25.20;97.10;;;;;;6203654;23;21066;-93
2021/08/20 11:49:31;;;;;;;6.10;4.87;;;25.30;95.90;;;;;;6202379;23;20480;-94
2021/08/20 11:52:07;;;;;;;5.27;4.87;;;24.60;97.40;;;;;;6203421;23;20884;-93
2021/08/20 11:54:34;;;;;;;5.57;5.07;;;24.30;98.10;;;;;;6201408;23;20245;-94
2021/08/20 11:57:00;;;;;;;5.63;5.23;;;24.60;98.70;;;;;;6202856;23;20410;-92
2021/08/20 11:59:26;;;;;;;5.97;5.47;;;24.80;99.50;;;;;;6198946;23;20794;-92
2021/08/20 12:01:56;;;;;;;5.77;5.30;;;25.50;99.30;;;;;;6200468;23;20620;-92
2021/08/20 12:04:23;;;;;;;5.40;5.00;;;26.00;97.00;;;;;;6201095;23;20199;-93
2021/08/20 12:06:49;;;;;;;5.90;5.30;;;26.10;97.00;;;;;;6199473;23;20644;-93
2021/08/20 12:09:18;;;;;;;6.03;5.50;;;26.60;95.70;;;;;;6200279;23;20394;-90
2021/08/20 12:11:52;;;;;;;6.57;5.97;;;26.60;94.40;;;;;;6199654;23;20402;-92
2021/08/20 12:14:22;;;;;;;5.97;5.37;;;25.40;96.00;;;;;;6199497;23;20393;-90
2021/08/20 12:16:49;;;;;;;5.30;4.90;;;25.90;97.20;;;;;;6198059;23;21176;-92
2021/08/20 12:19:50;;;;;;;6.03;4.80;;;26.10;94.90;;;;;;6208837;23;20400;-94
2021/08/20 12:22:16;;;;;;;5.67;5.17;;;25.80;95.30;;;;;;6202387;23;20397;-95
2021/08/20 12:24:51;;;;;;;5.60;5.20;;;25.40;95.80;;;;;;6199287;23;20482;-93
2021/08/20 12:27:23;;;;;;;5.67;5.10;;;25.20;95.90;;;;;;6226002;22;20484;-94
2021/08/20 12:29:58;;;;;;;5.40;5.00;;;25.10;96.00;;;;;;6230010;22;20395;-93
2021/08/20 12:32:25;;;;;;;5.40;4.93;;;25.00;95.70;;;;;;6256542;22;20949;-95
2021/08/20 12:35:02;;;;;;;5.30;4.90;;;24.90;96.70;;;;;;6230764;22;20816;-91
2021/08/20 12:37:29;;;;;;;4.93;4.60;;;25.60;95.90;;;;;;6225204;22;20392;-92
2021/08/20 12:43:54;;;;;;;4.27;3.87;;;26.00;94.10;;;;;;6282868;22;20463;-92
2021/08/20 12:46:39;;;;;;;4.23;3.80;;;25.80;93.90;;;;;;6312296;22;20760;-91
2021/08/20 12:49:07;;;;;;;4.13;3.80;;;26.40;94.60;;;;;;6313496;22;20410;-96
2021/08/20 12:51:35;;;;;;;4.60;4.20;;;27.00;92.80;;;;;;6287804;22;20920;-95
2021/08/20 12:54:28;;;;;;;4.67;4.27;;;27.30;92.40;;;;;;6300067;22;20403;-96
2021/08/20 12:59:29;;;;;;;4.50;4.10;;;27.00;91.00;;;;;;6246760;22;20700;-92
2021/08/20 13:02:00;;;;;;;4.00;3.70;;;26.70;90.00;;;;;;6201974;23;20498;-95
2021/08/20 13:04:25;;;;;;;4.23;3.93;;;26.80;90.40;;;;;;6205547;23;20975;-92
2021/08/20 13:06:51;;;;;;;4.43;4.03;;;26.80;91.30;;;;;;6201289;23;20574;-91
2021/08/20 13:09:17;;;;;;;4.10;3.80;;;27.30;88.40;;;;;;6197229;23;20173;-91
2021/08/20 13:11:49;;;;;;;3.87;3.57;;;27.00;89.70;;;;;;6200644;23;20194;-92